sensor_id;sensor_type;location;lat;lon;timestamp;pressure;altitude;pressure_sealevel;temperature;humidity
43814;BME280;29669;55.706;37.656;2023-10-19T00:02:20;98988.53;;;7.39;nan
43814;BME280;29669;55.706;37.656;2023-10-19T00:04:50;98993.38;;;7.42;nan
43814;BME280;29669;55.706;37.656;2023-10-19T00:07:18;98989.84;;;7.43;nan
43814;BME280;29669;55.706;37.656;2023-10-19T00:09:46;98986.78;;;7.40;nan
43814;BME280;29669;55.706;37.656;2023-10-19T00:12:15;98988.22;;;7.42;nan
43814;BME280;29669;55.706;37.656;2023-10-19T00:14:44;98998.06;;;7.47;nan
43814;BME280;29669;55.706;37.656;2023-10-19T00:17:12;98998.38;;;7.44;nan
43814;BME280;29669;55.706;37.656;2023-10-19T00:19:42;98988.53;;;7.39;nan
43814;BME280;29669;55.706;37.656;2023-10-19T00:22:25;98984.34;;;7.38;nan
43814;BME280;29669;55.706;37.656;2023-10-19T00:24:53;98985.31;;;7.37;nan
43814;BME280;29669;55.706;37.656;2023-10-19T00:27:21;98996.13;;;7.41;nan
43814;BME280;29669;55.706;37.656;2023-10-19T00:29:50;98991.28;;;7.38;nan
43814;BME280;29669;55.706;37.656;2023-10-19T00:32:23;98989.84;;;7.43;nan
43814;BME280;29669;55.706;37.656;2023-10-19T00:34:52;98980.47;;;7.42;nan
43814;BME280;29669;55.706;37.656;2023-10-19T00:37:21;98991.44;;;7.44;nan
43814;BME280;29669;55.706;37.656;2023-10-19T00:39:55;98981.44;;;7.41;nan
43814;BME280;29669;55.706;37.656;2023-10-19T00:42:24;98988.53;;;7.39;nan
43814;BME280;29669;55.706;37.656;2023-10-19T00:44:54;98987.91;;;7.37;nan
43814;BME280;29669;55.706;37.656;2023-10-19T00:47:32;98984.34;;;7.38;nan
43814;BME280;29669;55.706;37.656;2023-10-19T00:50:20;98985.31;;;7.37;nan
43814;BME280;29669;55.706;37.656;2023-10-19T00:52:50;98990.47;;;7.37;nan
43814;BME280;29669;55.706;37.656;2023-10-19T00:55:19;98989.50;;;7.38;nan
43814;BME280;29669;55.706;37.656;2023-10-19T00:57:50;98990.31;;;7.39;nan
43814;BME280;29669;55.706;37.656;2023-10-19T01:00:20;98984.50;;;7.37;nan
43814;BME280;29669;55.706;37.656;2023-10-19T01:03:02;98988.19;;;7.34;nan
43814;BME280;29669;55.706;37.656;2023-10-19T01:05:33;98988.84;;;7.36;nan
43814;BME280;29669;55.706;37.656;2023-10-19T01:08:05;98980.16;;;7.37;nan
43814;BME280;29669;55.706;37.656;2023-10-19T01:10:54;98988.38;;;7.41;nan
43814;BME280;29669;55.706;37.656;2023-10-19T01:13:22;98980.97;;;7.38;nan
43814;BME280;29669;55.706;37.656;2023-10-19T01:15:55;98986.78;;;7.40;nan
43814;BME280;29669;55.706;37.656;2023-10-19T01:18:25;98985.63;;;7.42;nan
43814;BME280;29669;55.706;37.656;2023-10-19T01:21:00;98979.97;;;7.39;nan
43814;BME280;29669;55.706;37.656;2023-10-19T01:23:32;98981.91;;;7.37;nan
43814;BME280;29669;55.706;37.656;2023-10-19T01:26:02;98984.97;;;7.40;nan
43814;BME280;29669;55.706;37.656;2023-10-19T01:28:37;98981.44;;;7.41;nan
43814;BME280;29669;55.706;37.656;2023-10-19T01:31:17;98980.16;;;7.37;nan
43814;BME280;29669;55.706;37.656;2023-10-19T01:34:00;98981.75;;;7.38;nan
43814;BME280;29669;55.706;37.656;2023-10-19T01:36:34;98970.13;;;7.34;nan
43814;BME280;29669;55.706;37.656;2023-10-19T01:39:10;98979.97;;;7.31;nan
43814;BME280;29669;55.706;37.656;2023-10-19T01:41:38;98981.13;;;7.28;nan
43814;BME280;29669;55.706;37.656;2023-10-19T01:44:08;98974.97;;;7.21;nan
43814;BME280;29669;55.706;37.656;2023-10-19T01:46:41;98976.75;;;7.21;nan
43814;BME280;29669;55.706;37.656;2023-10-19T01:49:11;98978.06;;;7.17;nan
43814;BME280;29669;55.706;37.656;2023-10-19T01:51:39;98981.28;;;7.19;nan
43814;BME280;29669;55.706;37.656;2023-10-19T01:54:09;98986.09;;;7.22;nan
43814;BME280;29669;55.706;37.656;2023-10-19T01:56:37;98982.06;;;7.19;nan
43814;BME280;29669;55.706;37.656;2023-10-19T01:59:06;98973.84;;;7.24;nan
43814;BME280;29669;55.706;37.656;2023-10-19T02:01:37;98969.81;;;7.21;nan
43814;BME280;29669;55.706;37.656;2023-10-19T02:04:06;98974.66;;;7.24;nan
43814;BME280;29669;55.706;37.656;2023-10-19T02:06:39;98975.31;;;7.26;nan
43814;BME280;29669;55.706;37.656;2023-10-19T02:09:13;98976.91;;;7.27;nan
43814;BME280;29669;55.706;37.656;2023-10-19T02:11:46;98974.50;;;7.34;nan
43814;BME280;29669;55.706;37.656;2023-10-19T02:14:17;98964.31;;;7.32;nan
43814;BME280;29669;55.706;37.656;2023-10-19T02:16:53;98969.81;;;7.37;nan
43814;BME280;29669;55.706;37.656;2023-10-19T02:19:26;98963.69;;;7.30;nan
43814;BME280;29669;55.706;37.656;2023-10-19T02:22:01;98974.34;;;7.35;nan
43814;BME280;29669;55.706;37.656;2023-10-19T02:24:36;98967.88;;;7.39;nan
43814;BME280;29669;55.706;37.656;2023-10-19T02:27:03;98970.47;;;7.39;nan
43814;BME280;29669;55.706;37.656;2023-10-19T02:29:34;98963.53;;;7.40;nan
43814;BME280;29669;55.706;37.656;2023-10-19T02:32:04;98967.88;;;7.39;nan
43814;BME280;29669;55.706;37.656;2023-10-19T02:34:33;98969.19;;;7.43;nan
43814;BME280;29669;55.706;37.656;2023-10-19T02:37:03;98968.38;;;7.43;nan
43814;BME280;29669;55.706;37.656;2023-10-19T02:39:30;98974.34;;;7.43;nan
43814;BME280;29669;55.706;37.656;2023-10-19T02:42:01;98975.47;;;7.41;nan
43814;BME280;29669;55.706;37.656;2023-10-19T02:44:30;98980.63;;;7.41;nan
43814;BME280;29669;55.706;37.656;2023-10-19T02:46:59;98980.78;;;7.39;nan
43814;BME280;29669;55.706;37.656;2023-10-19T02:49:30;98979.81;;;7.40;nan
43814;BME280;29669;55.706;37.656;2023-10-19T02:51:58;98970.63;;;7.38;nan
43814;BME280;29669;55.706;37.656;2023-10-19T02:54:32;98977.75;;;7.36;nan
43814;BME280;29669;55.706;37.656;2023-10-19T02:57:01;98973.84;;;7.32;nan
43814;BME280;29669;55.706;37.656;2023-10-19T02:59:34;98977.56;;;7.29;nan
43814;BME280;29669;55.706;37.656;2023-10-19T03:02:02;98970.28;;;7.25;nan
43814;BME280;29669;55.706;37.656;2023-10-19T03:04:40;98975.94;;;7.20;nan
43814;BME280;29669;55.706;37.656;2023-10-19T03:07:12;98972.38;;;7.21;nan
43814;BME280;29669;55.706;37.656;2023-10-19T03:09:41;98967.41;;;7.20;nan
43814;BME280;29669;55.706;37.656;2023-10-19T03:12:17;98962.09;;;7.13;nan
43814;BME280;29669;55.706;37.656;2023-10-19T03:14:48;98970.31;;;7.17;nan
43814;BME280;29669;55.706;37.656;2023-10-19T03:17:16;98956.41;;;7.18;nan
43814;BME280;29669;55.706;37.656;2023-10-19T03:19:46;98958.84;;;7.19;nan
43814;BME280;29669;55.706;37.656;2023-10-19T03:22:13;98963.88;;;7.21;nan
43814;BME280;29669;55.706;37.656;2023-10-19T03:24:43;98968.38;;;7.19;nan
43814;BME280;29669;55.706;37.656;2023-10-19T03:27:13;98969.81;;;7.21;nan
43814;BME280;29669;55.706;37.656;2023-10-19T03:29:52;98974.00;;;7.22;nan
43814;BME280;29669;55.706;37.656;2023-10-19T03:32:25;98963.34;;;7.17;nan
43814;BME280;29669;55.706;37.656;2023-10-19T03:35:00;98965.31;;;7.15;nan
43814;BME280;29669;55.706;37.656;2023-10-19T03:37:31;98969.50;;;7.16;nan
43814;BME280;29669;55.706;37.656;2023-10-19T03:40:03;98972.88;;;7.17;nan
43814;BME280;29669;55.706;37.656;2023-10-19T03:42:35;98972.25;;;7.15;nan
43814;BME280;29669;55.706;37.656;2023-10-19T03:45:08;98969.81;;;7.13;nan
43814;BME280;29669;55.706;37.656;2023-10-19T03:47:42;98968.03;;;7.14;nan
43814;BME280;29669;55.706;37.656;2023-10-19T03:50:12;98972.25;;;7.15;nan
43814;BME280;29669;55.706;37.656;2023-10-19T03:52:48;98974.00;;;7.14;nan
43814;BME280;29669;55.706;37.656;2023-10-19T03:55:16;98975.94;;;7.12;nan
43814;BME280;29669;55.706;37.656;2023-10-19T03:57:46;98983.03;;;7.18;nan
43814;BME280;29669;55.706;37.656;2023-10-19T04:04:08;98982.72;;;7.29;nan
43814;BME280;29669;55.706;37.656;2023-10-19T04:06:37;98973.38;;;7.28;nan
43814;BME280;29669;55.706;37.656;2023-10-19T04:09:13;98975.28;;;7.34;nan
43814;BME280;29669;55.706;37.656;2023-10-19T04:11:59;98975.28;;;7.34;nan
43814;BME280;29669;55.706;37.656;2023-10-19T04:15:19;98969.81;;;7.29;nan
43814;BME280;29669;55.706;37.656;2023-10-19T04:18:10;98975.63;;;7.31;nan
43814;BME280;29669;55.706;37.656;2023-10-19T04:20:46;98975.97;;;7.28;nan
43814;BME280;29669;55.706;37.656;2023-10-19T04:33:24;98981.44;;;7.33;nan
43814;BME280;29669;55.706;37.656;2023-10-19T04:36:50;98985.31;;;7.37;68.69
43814;BME280;29669;55.706;37.656;2023-10-19T04:48:55;98983.38;;;7.47;68.75
43814;BME280;29669;55.706;37.656;2023-10-19T04:51:43;98986.41;;;7.59;68.49
43814;BME280;29669;55.706;37.656;2023-10-19T04:54:11;98979.47;;;7.59;68.41
43814;BME280;29669;55.706;37.656;2023-10-19T04:56:39;98985.94;;;7.63;68.47
43814;BME280;29669;55.706;37.656;2023-10-19T04:59:06;98982.06;;;7.68;68.53
43814;BME280;29669;55.706;37.656;2023-10-19T05:01:34;98979.66;;;7.66;68.43
43814;BME280;29669;55.706;37.656;2023-10-19T05:04:02;98980.94;;;7.70;68.40
43814;BME280;29669;55.706;37.656;2023-10-19T05:06:30;98991.75;;;7.74;68.40
43814;BME280;29669;55.706;37.656;2023-10-19T05:08:57;98978.50;;;7.77;68.35
43814;BME280;29669;55.706;37.656;2023-10-19T05:11:25;98988.66;;;7.78;68.26
43814;BME280;29669;55.706;37.656;2023-10-19T05:13:53;98983.50;;;7.78;68.25
43814;BME280;29669;55.706;37.656;2023-10-19T05:16:21;98990.75;;;7.83;68.24
43814;BME280;29669;55.706;37.656;2023-10-19T05:18:48;98987.53;;;7.89;68.05
43814;BME280;29669;55.706;37.656;2023-10-19T05:21:17;98973.78;;;7.88;68.04
43814;BME280;29669;55.706;37.656;2023-10-19T05:23:48;98988.16;;;7.91;67.94
43814;BME280;29669;55.706;37.656;2023-10-19T05:26:21;98986.22;;;7.93;67.97
43814;BME280;29669;55.706;37.656;2023-10-19T05:28:49;98988.81;;;7.93;68.18
43814;BME280;29669;55.706;37.656;2023-10-19T05:31:16;98988.81;;;7.93;68.02
43814;BME280;29669;55.706;37.656;2023-10-19T05:33:44;98995.75;;;7.92;68.05
43814;BME280;29669;55.706;37.656;2023-10-19T05:36:12;98994.13;;;7.91;68.18
43814;BME280;29669;55.706;37.656;2023-10-19T05:38:42;98991.41;;;7.93;68.36
43814;BME280;29669;55.706;37.656;2023-10-19T05:41:09;99002.69;;;8.00;67.95
43814;BME280;29669;55.706;37.656;2023-10-19T05:43:38;98998.16;;;8.02;67.74
43814;BME280;29669;55.706;37.656;2023-10-19T05:46:06;99000.75;;;8.02;67.72
43814;BME280;29669;55.706;37.656;2023-10-19T05:48:34;98999.44;;;8.06;68.04
43814;BME280;29669;55.706;37.656;2023-10-19T05:51:01;99001.19;;;8.13;68.03
43814;BME280;29669;55.706;37.656;2023-10-19T05:53:30;99002.78;;;8.22;67.78
43814;BME280;29669;55.706;37.656;2023-10-19T05:55:58;99003.28;;;8.26;67.74
43814;BME280;29669;55.706;37.656;2023-10-19T05:58:25;99001.50;;;8.26;67.58
43814;BME280;29669;55.706;37.656;2023-10-19T06:00:53;99011.69;;;8.28;67.41
43814;BME280;29669;55.706;37.656;2023-10-19T06:03:25;99006.03;;;8.24;67.53
43814;BME280;29669;55.706;37.656;2023-10-19T06:05:53;99010.06;;;8.27;67.73
43814;BME280;29669;55.706;37.656;2023-10-19T06:08:23;99008.91;;;8.29;67.86
43814;BME280;29669;55.706;37.656;2023-10-19T06:10:52;99001.00;;;8.31;67.78
43814;BME280;29669;55.706;37.656;2023-10-19T06:13:20;99008.91;;;8.37;67.77
43814;BME280;29669;55.706;37.656;2023-10-19T06:15:49;99011.63;;;8.44;67.59
43814;BME280;29669;55.706;37.656;2023-10-19T06:18:17;99003.34;;;8.48;67.41
43814;BME280;29669;55.706;37.656;2023-10-19T06:20:45;99002.69;;;8.54;67.26
43814;BME280;29669;55.706;37.656;2023-10-19T06:23:13;99003.81;;;8.52;67.19
43814;BME280;29669;55.706;37.656;2023-10-19T06:25:41;99000.56;;;8.58;67.28
43814;BME280;29669;55.706;37.656;2023-10-19T06:28:10;99007.66;;;8.64;67.09
43814;BME280;29669;55.706;37.656;2023-10-19T06:30:41;99003.13;;;8.66;67.13
43814;BME280;29669;55.706;37.656;2023-10-19T06:33:08;99007.03;;;8.62;66.93
43814;BME280;29669;55.706;37.656;2023-10-19T06:35:36;99009.59;;;8.62;67.05
43814;BME280;29669;55.706;37.656;2023-10-19T06:38:04;99012.19;;;8.62;67.00
43814;BME280;29669;55.706;37.656;2023-10-19T06:40:34;99011.22;;;8.63;67.13
43814;BME280;29669;55.706;37.656;2023-10-19T06:43:04;99011.56;;;8.60;67.09
43814;BME280;29669;55.706;37.656;2023-10-19T06:45:32;99006.38;;;8.60;66.97
43814;BME280;29669;55.706;37.656;2023-10-19T06:48:01;99000.22;;;8.61;67.12
43814;BME280;29669;55.706;37.656;2023-10-19T06:50:28;99006.19;;;8.70;67.04
43814;BME280;29669;55.706;37.656;2023-10-19T06:52:56;99002.91;;;8.76;66.78
43814;BME280;29669;55.706;37.656;2023-10-19T06:55:24;99002.72;;;8.85;66.41
43814;BME280;29669;55.706;37.656;2023-10-19T06:57:53;99009.63;;;8.93;66.48
43814;BME280;29669;55.706;37.656;2023-10-19T07:00:23;99007.94;;;9.00;66.28
43814;BME280;29669;55.706;37.656;2023-10-19T07:02:55;99015.31;;;9.11;66.04
43814;BME280;29669;55.706;37.656;2023-10-19T07:05:23;99007.69;;;9.17;65.87
43814;BME280;29669;55.706;37.656;2023-10-19T07:07:52;99004.09;;;9.18;65.72
43814;BME280;29669;55.706;37.656;2023-10-19T07:10:23;99008.31;;;9.19;65.70
43814;BME280;29669;55.706;37.656;2023-10-19T07:12:52;99014.91;;;9.22;65.85
43814;BME280;29669;55.706;37.656;2023-10-19T07:15:23;99018.09;;;9.32;65.89
43814;BME280;29669;55.706;37.656;2023-10-19T07:17:53;99012.94;;;9.46;65.78
43814;BME280;29669;55.706;37.656;2023-10-19T07:20:22;99024.38;;;9.75;65.73
43814;BME280;29669;55.706;37.656;2023-10-19T07:22:56;99024.81;;;10.01;65.21
43814;BME280;29669;55.706;37.656;2023-10-19T07:25:24;99017.13;;;10.22;64.92
43814;BME280;29669;55.706;37.656;2023-10-19T07:27:53;99015.97;;;10.39;64.60
43814;BME280;29669;55.706;37.656;2023-10-19T07:30:22;99019.53;;;10.53;64.21
43814;BME280;29669;55.706;37.656;2023-10-19T07:32:54;99023.84;;;10.60;64.07
43814;BME280;29669;55.706;37.656;2023-10-19T07:35:23;99021.69;;;10.64;64.19
43814;BME280;29669;55.706;37.656;2023-10-19T07:37:54;99022.50;;;10.64;63.98
43814;BME280;29669;55.706;37.656;2023-10-19T07:40:23;99026.81;;;10.57;64.33
43814;BME280;29669;55.706;37.656;2023-10-19T07:42:52;99023.94;;;10.52;64.22
43814;BME280;29669;55.706;37.656;2023-10-19T07:45:22;99025.91;;;10.35;64.49
43814;BME280;29669;55.706;37.656;2023-10-19T07:47:50;99028.69;;;10.19;64.80
43814;BME280;29669;55.706;37.656;2023-10-19T07:50:18;99027.28;;;10.09;64.89
43814;BME280;29669;55.706;37.656;2023-10-19T07:52:51;99025.78;;;10.00;64.69
43814;BME280;29669;55.706;37.656;2023-10-19T07:55:20;99033.41;;;9.79;64.95
43814;BME280;29669;55.706;37.656;2023-10-19T07:57:51;99034.28;;;9.71;65.25
43814;BME280;29669;55.706;37.656;2023-10-19T08:00:20;99032.16;;;9.75;65.17
43814;BME280;29669;55.706;37.656;2023-10-19T08:02:48;99033.34;;;9.87;64.91
43814;BME280;29669;55.706;37.656;2023-10-19T08:05:16;99027.84;;;10.04;64.76
43814;BME280;29669;55.706;37.656;2023-10-19T08:07:46;99022.78;;;10.25;64.24
43814;BME280;29669;55.706;37.656;2023-10-19T08:10:16;99034.03;;;10.47;64.16
43814;BME280;29669;55.706;37.656;2023-10-19T08:12:47;99039.31;;;10.68;63.63
43814;BME280;29669;55.706;37.656;2023-10-19T08:15:16;99029.97;;;10.88;62.96
43814;BME280;29669;55.706;37.656;2023-10-19T08:17:47;99026.09;;;10.99;62.65
43814;BME280;29669;55.706;37.656;2023-10-19T08:20:26;99035.38;;;11.08;62.45
43814;BME280;29669;55.706;37.656;2023-10-19T08:23:04;99039.59;;;11.09;62.34
43814;BME280;29669;55.706;37.656;2023-10-19T08:25:33;99034.25;;;10.96;62.25
43814;BME280;29669;55.706;37.656;2023-10-19T08:28:21;99043.72;;;11.03;62.77
43814;BME280;29669;55.706;37.656;2023-10-19T08:30:50;99033.50;;;11.16;62.45
43814;BME280;29669;55.706;37.656;2023-10-19T08:33:29;99034.28;;;11.17;62.19
43814;BME280;29669;55.706;37.656;2023-10-19T08:35:58;99037.06;;;11.15;62.13
43814;BME280;29669;55.706;37.656;2023-10-19T08:38:28;99029.28;;;11.15;61.98
43814;BME280;29669;55.706;37.656;2023-10-19T08:40:57;99036.13;;;11.23;62.23
43814;BME280;29669;55.706;37.656;2023-10-19T08:43:25;99033.53;;;11.23;62.31
43814;BME280;29669;55.706;37.656;2023-10-19T08:45:54;99041.38;;;11.08;62.54
43814;BME280;29669;55.706;37.656;2023-10-19T08:48:22;99039.72;;;11.01;62.81
43814;BME280;29669;55.706;37.656;2023-10-19T08:50:51;99040.00;;;10.91;62.86
43814;BME280;29669;55.706;37.656;2023-10-19T08:53:20;99038.47;;;10.97;63.04
43814;BME280;29669;55.706;37.656;2023-10-19T08:55:48;99044.97;;;11.07;62.95
43814;BME280;29669;55.706;37.656;2023-10-19T08:58:19;99051.69;;;11.16;62.81
43814;BME280;29669;55.706;37.656;2023-10-19T09:00:51;99053.03;;;11.12;62.79
43814;BME280;29669;55.706;37.656;2023-10-19T09:03:24;99039.63;;;10.94;62.62
43814;BME280;29669;55.706;37.656;2023-10-19T09:05:53;99046.00;;;10.77;62.92
43814;BME280;29669;55.706;37.656;2023-10-19T09:08:22;99052.81;;;10.64;63.18
43814;BME280;29669;55.706;37.656;2023-10-19T09:10:51;99050.88;;;10.51;63.49
43814;BME280;29669;55.706;37.656;2023-10-19T09:13:22;99055.25;;;10.51;63.51
43814;BME280;29669;55.706;37.656;2023-10-19T09:15:51;99049.16;;;10.43;63.49
43814;BME280;29669;55.706;37.656;2023-10-19T09:18:25;99053.91;;;10.40;63.37
43814;BME280;29669;55.706;37.656;2023-10-19T09:20:58;99066.88;;;10.25;63.63
43814;BME280;29669;55.706;37.656;2023-10-19T09:23:36;99064.19;;;10.19;63.82
43814;BME280;29669;55.706;37.656;2023-10-19T09:26:05;99059.69;;;10.13;63.71
43814;BME280;29669;55.706;37.656;2023-10-19T09:28:37;99060.47;;;9.99;63.88
43814;BME280;29669;55.706;37.656;2023-10-19T09:31:06;99061.88;;;9.87;64.26
43814;BME280;29669;55.706;37.656;2023-10-19T09:33:40;99056.41;;;9.82;64.40
43814;BME280;29669;55.706;37.656;2023-10-19T09:36:09;99065.22;;;9.73;64.37
43814;BME280;29669;55.706;37.656;2023-10-19T09:38:50;99065.06;;;9.74;64.63
43814;BME280;29669;55.706;37.656;2023-10-19T09:41:21;99059.97;;;9.81;64.58
43814;BME280;29669;55.706;37.656;2023-10-19T09:43:50;99065.78;;;9.83;64.62
43814;BME280;29669;55.706;37.656;2023-10-19T09:46:27;99063.81;;;9.85;64.70
43814;BME280;29669;55.706;37.656;2023-10-19T09:48:57;99064.50;;;9.79;64.64
43814;BME280;29669;55.706;37.656;2023-10-19T09:51:25;99061.38;;;9.69;64.83
43814;BME280;29669;55.706;37.656;2023-10-19T09:53:58;99061.38;;;9.69;65.21
43814;BME280;29669;55.706;37.656;2023-10-19T09:56:35;99067.34;;;9.69;65.13
43814;BME280;29669;55.706;37.656;2023-10-19T09:59:13;99067.09;;;9.79;65.27
43814;BME280;29669;55.706;37.656;2023-10-19T10:02:12;99066.28;;;10.01;65.39
43814;BME280;29669;55.706;37.656;2023-10-19T10:04:42;99063.66;;;10.38;65.37
43814;BME280;29669;55.706;37.656;2023-10-19T10:07:14;99066.69;;;10.85;64.43
43814;BME280;29669;55.706;37.656;2023-10-19T10:09:58;99062.81;;;11.31;64.01
43814;BME280;29669;55.706;37.656;2023-10-19T10:12:26;99069.66;;;11.75;63.55
43814;BME280;29669;55.706;37.656;2023-10-19T10:14:59;99067.88;;;12.03;62.80
43814;BME280;29669;55.706;37.656;2023-10-19T10:17:34;99063.91;;;12.07;62.41
43814;BME280;29669;55.706;37.656;2023-10-19T10:22:42;99068.66;;;11.76;62.37
43814;BME280;29669;55.706;37.656;2023-10-19T10:25:26;99063.56;;;11.47;62.78
43814;BME280;29669;55.706;37.656;2023-10-19T10:27:58;99067.75;;;11.26;63.33
43814;BME280;29669;55.706;37.656;2023-10-19T10:30:25;99060.47;;;11.01;63.70
43814;BME280;29669;55.706;37.656;2023-10-19T10:32:53;99062.03;;;10.81;63.46
43814;BME280;29669;55.706;37.656;2023-10-19T10:38:05;99063.47;;;10.25;64.53
43814;BME280;29669;55.706;37.656;2023-10-19T10:40:50;99069.81;;;10.22;64.63
43814;BME280;29669;55.706;37.656;2023-10-19T10:43:19;99073.41;;;10.21;64.54
43814;BME280;29669;55.706;37.656;2023-10-19T10:45:47;99074.63;;;10.11;64.74
43814;BME280;29669;55.706;37.656;2023-10-19T10:48:15;99072.66;;;10.13;64.95
43814;BME280;29669;55.706;37.656;2023-10-19T10:50:43;99063.78;;;10.07;64.82
43814;BME280;29669;55.706;37.656;2023-10-19T10:53:14;99065.50;;;10.15;64.98
43814;BME280;29669;55.706;37.656;2023-10-19T10:55:45;99068.75;;;10.17;64.97
43814;BME280;29669;55.706;37.656;2023-10-19T10:58:18;99071.16;;;10.18;64.77
43814;BME280;29669;55.706;37.656;2023-10-19T11:00:46;99069.28;;;10.27;64.65
43814;BME280;29669;55.706;37.656;2023-10-19T11:03:17;99066.69;;;10.41;64.64
43814;BME280;29669;55.706;37.656;2023-10-19T11:05:44;99071.09;;;10.56;64.50
43814;BME280;29669;55.706;37.656;2023-10-19T11:08:15;99076.72;;;10.59;64.55
43814;BME280;29669;55.706;37.656;2023-10-19T11:10:45;99067.50;;;10.57;64.26
43814;BME280;29669;55.706;37.656;2023-10-19T11:13:21;99068.13;;;10.59;64.50
43814;BME280;29669;55.706;37.656;2023-10-19T11:15:51;99068.66;;;10.54;64.20
43814;BME280;29669;55.706;37.656;2023-10-19T11:18:35;99075.75;;;10.46;64.62
43814;BME280;29669;55.706;37.656;2023-10-19T11:21:12;99073.22;;;10.37;64.62
43814;BME280;29669;55.706;37.656;2023-10-19T11:23:44;99079.03;;;10.25;64.71
43814;BME280;29669;55.706;37.656;2023-10-19T11:26:17;99086.28;;;10.07;64.92
43814;BME280;29669;55.706;37.656;2023-10-19T11:28:45;99078.84;;;9.89;65.11
43814;BME280;29669;55.706;37.656;2023-10-19T11:31:21;99083.53;;;9.71;65.24
43814;BME280;29669;55.706;37.656;2023-10-19T11:33:52;99080.38;;;9.61;65.37
43814;BME280;29669;55.706;37.656;2023-10-19T11:36:21;99085.34;;;9.48;65.71
43814;BME280;29669;55.706;37.656;2023-10-19T11:38:53;99070.34;;;9.35;65.68
43814;BME280;29669;55.706;37.656;2023-10-19T11:41:21;99083.81;;;9.31;65.76
43814;BME280;29669;55.706;37.656;2023-10-19T11:47:41;99078.66;;;9.00;65.93
43814;BME280;29669;55.706;37.656;2023-10-19T11:50:25;99069.66;;;8.80;66.20
43814;BME280;29669;55.706;37.656;2023-10-19T11:53:15;99078.75;;;8.76;66.37
43814;BME280;29669;55.706;37.656;2023-10-19T11:55:45;99085.53;;;8.77;66.68
43814;BME280;29669;55.706;37.656;2023-10-19T11:58:16;99072.13;;;8.74;66.66
43814;BME280;29669;55.706;37.656;2023-10-19T12:00:44;99070.50;;;8.73;66.70
43814;BME280;29669;55.706;37.656;2023-10-19T12:03:13;99078.16;;;8.66;66.94
43814;BME280;29669;55.706;37.656;2023-10-19T12:05:42;99076.56;;;8.57;67.10
43814;BME280;29669;55.706;37.656;2023-10-19T12:08:11;99066.25;;;8.49;67.22
43814;BME280;29669;55.706;37.656;2023-10-19T12:10:39;99082.22;;;8.52;67.24
43814;BME280;29669;55.706;37.656;2023-10-19T12:13:06;99080.47;;;8.53;67.67
43814;BME280;29669;55.706;37.656;2023-10-19T12:15:36;99069.78;;;8.48;67.80
43814;BME280;29669;55.706;37.656;2023-10-19T12:18:03;99082.22;;;8.52;67.76
43814;BME280;29669;55.706;37.656;2023-10-19T12:20:32;99076.25;;;8.52;67.80
43814;BME280;29669;55.706;37.656;2023-10-19T12:23:03;99074.19;;;8.47;67.96
43814;BME280;29669;55.706;37.656;2023-10-19T12:25:33;99065.63;;;8.39;68.12
43814;BME280;29669;55.706;37.656;2023-10-19T12:28:20;99077.72;;;8.38;68.26
43814;BME280;29669;55.706;37.656;2023-10-19T12:30:48;99085.81;;;8.35;68.32
43814;BME280;29669;55.706;37.656;2023-10-19T12:33:16;99087.47;;;8.36;68.43
43814;BME280;29669;55.706;37.656;2023-10-19T12:35:44;99081.00;;;8.32;68.55
43814;BME280;29669;55.706;37.656;2023-10-19T12:38:24;99089.22;;;8.36;68.62
43814;BME280;29669;55.706;37.656;2023-10-19T12:40:53;99082.59;;;8.41;68.61
43814;BME280;29669;55.706;37.656;2023-10-19T12:43:22;99082.91;;;8.38;68.82
43814;BME280;29669;55.706;37.656;2023-10-19T12:45:50;99081.47;;;8.44;68.81
43814;BME280;29669;55.706;37.656;2023-10-19T12:48:21;99084.81;;;8.52;68.78
43814;BME280;29669;55.706;37.656;2023-10-19T12:50:49;99078.50;;;8.55;68.66
43814;BME280;29669;55.706;37.656;2023-10-19T12:53:17;99087.03;;;8.64;68.68
43814;BME280;29669;55.706;37.656;2023-10-19T12:55:45;99088.16;;;8.69;68.56
43814;BME280;29669;55.706;37.656;2023-10-19T12:58:12;99082.19;;;8.69;68.77
43814;BME280;29669;55.706;37.656;2023-10-19T13:00:42;99089.13;;;8.68;68.58
43814;BME280;29669;55.706;37.656;2023-10-19T13:03:15;99085.56;;;8.69;68.80
43814;BME280;29669;55.706;37.656;2023-10-19T13:05:43;99086.81;;;8.81;68.90
43814;BME280;29669;55.706;37.656;2023-10-19T13:08:14;99085.81;;;8.90;68.74
43814;BME280;29669;55.706;37.656;2023-10-19T13:10:45;99077.38;;;8.96;68.67
43814;BME280;29669;55.706;37.656;2023-10-19T13:13:14;99079.88;;;9.12;68.55
43814;BME280;29669;55.706;37.656;2023-10-19T13:15:44;99084.38;;;9.18;68.29
43814;BME280;29669;55.706;37.656;2023-10-19T13:18:13;99086.09;;;9.26;68.25
43814;BME280;29669;55.706;37.656;2023-10-19T13:20:41;99091.59;;;9.31;68.40
43814;BME280;29669;55.706;37.656;2023-10-19T13:23:11;99086.41;;;9.31;68.14
43814;BME280;29669;55.706;37.656;2023-10-19T13:25:39;99089.47;;;9.34;68.37
43814;BME280;29669;55.706;37.656;2023-10-19T13:28:29;99097.88;;;9.36;68.22
43814;BME280;29669;55.706;37.656;2023-10-19T13:30:56;99093.84;;;9.34;68.31
43814;BME280;29669;55.706;37.656;2023-10-19T13:33:25;99104.19;;;9.34;68.13
43814;BME280;29669;55.706;37.656;2023-10-19T13:35:53;99095.66;;;9.25;68.35
43814;BME280;29669;55.706;37.656;2023-10-19T13:38:21;99097.78;;;9.22;68.20
43814;BME280;29669;55.706;37.656;2023-10-19T13:40:49;99102.53;;;9.10;68.57
43814;BME280;29669;55.706;37.656;2023-10-19T13:43:18;99104.81;;;9.05;68.67
43814;BME280;29669;55.706;37.656;2023-10-19T13:45:47;99101.59;;;9.03;68.48
43814;BME280;29669;55.706;37.656;2023-10-19T13:48:34;99095.94;;;9.00;68.58
43814;BME280;29669;55.706;37.656;2023-10-19T13:51:03;99099.69;;;8.97;68.58
43814;BME280;29669;55.706;37.656;2023-10-19T13:53:42;99106.00;;;8.95;68.77
43814;BME280;29669;55.706;37.656;2023-10-19T13:56:13;99110.56;;;8.93;68.85
43814;BME280;29669;55.706;37.656;2023-10-19T13:58:46;99107.50;;;8.89;68.82
43814;BME280;29669;55.706;37.656;2023-10-19T14:01:18;99114.28;;;8.90;68.63